Time;durP1;ratioP1;P1;durP2;ratioP2;P2;SDS_P1;SDS_P2;PMS_P1;PMS_P2;Temp;Humidity;BMP_temperature;BMP_pressure;BME280_temperature;BME280_humidity;BME280_pressure;Samples;Min_cycle;Max_cycle;Signal;HPM_P1;HPM_P2
2021/04/15 00:01:40;;;;;;;11.63;10.43;;;;;;;;;;4954726;28;20677;-64
2021/04/15 00:04:07;;;;;;;12.07;10.33;;;;;;;;;;4950751;28;20221;-63
2021/04/15 00:06:33;;;;;;;13.13;11.83;;;;;;;;;;4955968;28;20222;-62
2021/04/15 00:09:06;;;;;;;11.87;10.23;;;;;;;;;;4954386;28;20219;-63
2021/04/15 00:11:32;;;;;;;11.80;10.60;;;;;;;;;;4956684;28;20246;-64
2021/04/15 00:13:59;;;;;;;12.47;11.27;;;;;;;;;;4952901;28;20194;-62
2021/04/15 00:16:25;;;;;;;12.90;11.33;;;;;;;;;;4952878;28;20592;-63
2021/04/15 00:18:51;;;;;;;11.93;10.73;;;;;;;;;;4955050;28;20210;-63
2021/04/15 00:21:18;;;;;;;13.40;12.07;;;;;;;;;;4953496;28;20200;-62
2021/04/15 00:23:45;;;;;;;14.40;12.43;;;;;;;;;;4951703;28;20193;-63
2021/04/15 00:26:12;;;;;;;14.03;12.53;;;;;;;;;;4951218;28;20188;-64
2021/04/15 00:28:38;;;;;;;13.17;11.80;;;;;;;;;;4953505;28;20600;-63
2021/04/15 00:31:04;;;;;;;12.83;11.63;;;;;;;;;;4946816;28;20281;-62
2021/04/15 00:33:30;;;;;;;13.60;12.20;;;;;;;;;;4953499;28;20199;-63
2021/04/15 00:35:56;;;;;;;14.17;11.87;;;;;;;;;;4953261;28;20624;-64
2021/04/15 00:38:23;;;;;;;15.13;13.00;;;;;;;;;;4951381;28;20223;-62
2021/04/15 00:40:50;;;;;;;21.80;13.80;;;;;;;;;;4950309;28;21096;-62
2021/04/15 00:43:17;;;;;;;14.80;13.30;;;;;;;;;;4951199;28;20804;-61
2021/04/15 00:45:44;;;;;;;17.67;13.23;;;;;;;;;;4957830;28;20187;-62
2021/04/15 00:48:29;;;;;;;17.07;14.53;;;;;;;;;;4951072;28;20299;-63
2021/04/15 00:50:59;;;;;;;17.17;14.20;;;;;;;;;;4949298;28;20183;-63
2021/04/15 00:53:27;;;;;;;16.20;14.50;;;;;;;;;;4957162;28;20202;-63
2021/04/15 00:55:54;;;;;;;15.47;13.87;;;;;;;;;;4952687;28;20191;-63
2021/04/15 00:58:21;;;;;;;16.63;14.00;;;;;;;;;;4950013;28;20705;-61
2021/04/15 01:00:47;;;;;;;16.03;13.80;;;;;;;;;;4949298;28;20274;-61
2021/04/15 01:03:13;;;;;;;17.17;15.03;;;;;;;;;;4954871;28;20218;-61
2021/04/15 01:05:49;;;;;;;17.63;15.80;;;;;;;;;;4949478;28;20270;-64
2021/04/15 01:08:15;;;;;;;16.93;15.13;;;;;;;;;;4950790;28;20309;-61
2021/04/15 01:10:44;;;;;;;21.10;16.33;;;;;;;;;;4949768;28;20197;-62
2021/04/15 01:13:41;;;;;;;19.27;16.20;;;;;;;;;;4948846;28;20657;-65
2021/04/15 01:16:26;;;;;;;17.53;15.63;;;;;;;;;;4930893;29;20345;-62
2021/04/15 01:19:02;;;;;;;18.00;15.80;;;;;;;;;;4933115;29;20276;-64
2021/04/15 01:21:46;;;;;;;17.53;15.37;;;;;;;;;;4928787;29;20227;-63
2021/04/15 01:24:18;;;;;;;19.60;16.40;;;;;;;;;;4930000;29;20236;-62
2021/04/15 01:27:06;;;;;;;16.80;15.03;;;;;;;;;;4929332;29;20230;-62
2021/04/15 01:29:41;;;;;;;16.87;15.17;;;;;;;;;;4931190;29;20273;-62
2021/04/15 01:32:15;;;;;;;18.80;16.87;;;;;;;;;;4929842;29;20194;-62
2021/04/15 01:34:41;;;;;;;19.73;16.07;;;;;;;;;;4926018;29;20584;-63
2021/04/15 01:37:18;;;;;;;18.43;16.17;;;;;;;;;;4932252;29;20242;-64
2021/04/15 01:39:51;;;;;;;16.93;15.10;;;;;;;;;;4923620;28;20243;-64
2021/04/15 01:42:20;;;;;;;18.60;16.33;;;;;;;;;;4922148;29;20190;-64
2021/04/15 01:45:06;;;;;;;22.37;17.47;;;;;;;;;;4927054;29;20203;-63
2021/04/15 01:47:39;;;;;;;18.00;16.10;;;;;;;;;;4929925;29;20258;-63
2021/04/15 01:50:24;;;;;;;22.80;17.33;;;;;;;;;;4931498;29;20226;-62
2021/04/15 01:52:52;;;;;;;21.83;16.40;;;;;;;;;;4942552;28;20210;-63
2021/04/15 01:55:33;;;;;;;19.93;17.87;;;;;;;;;;4950339;28;20210;-64
2021/04/15 01:58:06;;;;;;;23.40;16.97;;;;;;;;;;4952105;28;20198;-61
2021/04/15 02:00:34;;;;;;;21.50;18.10;;;;;;;;;;4951357;28;20553;-63
2021/04/15 02:03:05;;;;;;;21.93;18.27;;;;;;;;;;4951051;28;20189;-62
2021/04/15 02:05:34;;;;;;;21.17;17.93;;;;;;;;;;4952412;28;20203;-63
2021/04/15 02:08:04;;;;;;;20.70;18.47;;;;;;;;;;4950065;28;20245;-62
2021/04/15 02:10:30;;;;;;;23.33;18.70;;;;;;;;;;4951357;28;20327;-63
2021/04/15 02:12:58;;;;;;;20.30;18.10;;;;;;;;;;4953170;28;20328;-63
2021/04/15 02:15:26;;;;;;;20.27;16.83;;;;;;;;;;4954433;28;20209;-63
2021/04/15 02:17:54;;;;;;;19.83;16.73;;;;;;;;;;4950737;28;20198;-64
2021/04/15 02:20:21;;;;;;;20.57;16.00;;;;;;;;;;4949204;28;20722;-62
2021/04/15 02:22:57;;;;;;;21.73;17.27;;;;;;;;;;4951627;28;20208;-63
2021/04/15 02:25:35;;;;;;;17.97;15.80;;;;;;;;;;4947079;28;20198;-63
2021/04/15 02:28:08;;;;;;;20.00;16.83;;;;;;;;;;4945280;28;20219;-62
2021/04/15 02:30:43;;;;;;;17.53;15.67;;;;;;;;;;4950951;28;20183;-62
2021/04/15 02:33:12;;;;;;;19.70;17.00;;;;;;;;;;4953842;28;20185;-64
2021/04/15 02:35:43;;;;;;;19.13;16.47;;;;;;;;;;4952719;28;20195;-63
2021/04/15 02:38:10;;;;;;;18.17;15.40;;;;;;;;;;4953765;28;20217;-61
2021/04/15 02:40:39;;;;;;;18.53;15.27;;;;;;;;;;4955398;28;20208;-63
2021/04/15 02:43:10;;;;;;;17.83;16.00;;;;;;;;;;4950264;28;20210;-63
2021/04/15 02:45:38;;;;;;;18.73;16.00;;;;;;;;;;4949376;28;20275;-62
2021/04/15 02:48:07;;;;;;;17.73;15.93;;;;;;;;;;4951810;28;20308;-63
2021/04/15 02:50:34;;;;;;;18.83;16.10;;;;;;;;;;4954632;28;20185;-65
2021/04/15 02:53:26;;;;;;;17.83;15.93;;;;;;;;;;4948084;28;20933;-61
2021/04/15 02:55:53;;;;;;;23.17;17.43;;;;;;;;;;4943741;28;20265;-63
2021/04/15 02:58:22;;;;;;;18.87;16.53;;;;;;;;;;4948772;28;20300;-62
2021/04/15 03:00:50;;;;;;;19.70;17.13;;;;;;;;;;4950682;28;20197;-61
2021/04/15 03:03:18;;;;;;;18.20;16.30;;;;;;;;;;4952702;28;20201;-62
2021/04/15 03:05:57;;;;;;;20.10;17.23;;;;;;;;;;4946399;28;20203;-61
2021/04/15 03:08:24;;;;;;;20.60;16.70;;;;;;;;;;4947190;28;20209;-64
2021/04/15 03:18:55;;;;;;;20.50;17.47;;;;;;;;;;4970722;28;20226;-63
2021/04/15 03:21:24;;;;;;;18.13;15.63;;;;;;;;;;4980604;28;20748;-63
2021/04/15 03:24:07;;;;;;;21.60;17.03;;;;;;;;;;4978009;28;20646;-63
2021/04/15 03:26:40;;;;;;;20.57;17.07;;;;;;;;;;4970311;28;20205;-64
2021/04/15 03:29:09;;;;;;;20.97;17.77;;;;;;;;;;4963819;28;20247;-64
2021/04/15 03:31:42;;;;;;;22.43;17.57;;;;;;;;;;4966200;28;20254;-64
2021/04/15 03:34:10;;;;;;;19.50;16.60;;;;;;;;;;4970342;28;20183;-63
2021/04/15 03:36:38;;;;;;;19.57;16.67;;;;;;;;;;4966670;28;20213;-63
2021/04/15 03:39:07;;;;;;;24.27;17.23;;;;;;;;;;4964741;28;20195;-64
2021/04/15 03:41:42;;;;;;;18.37;16.53;;;;;;;;;;4965281;28;20194;-63
2021/04/15 03:44:10;;;;;;;21.77;16.00;;;;;;;;;;4963148;28;20648;-65
2021/04/15 03:46:38;;;;;;;18.93;16.07;;;;;;;;;;4963849;28;20214;-64
2021/04/15 03:49:20;;;;;;;20.20;16.43;;;;;;;;;;4962246;28;20191;-64
2021/04/15 03:51:47;;;;;;;19.10;15.47;;;;;;;;;;4965234;28;20714;-64
2021/04/15 03:54:15;;;;;;;19.33;16.20;;;;;;;;;;4969286;28;20245;-63
2021/04/15 03:56:50;;;;;;;19.23;16.30;;;;;;;;;;4966547;28;20691;-64
2021/04/15 03:59:35;;;;;;;18.00;15.57;;;;;;;;;;4967313;28;20195;-65
2021/04/15 04:02:02;;;;;;;20.23;15.57;;;;;;;;;;4960461;28;20200;-64
2021/04/15 04:04:28;;;;;;;18.80;15.50;;;;;;;;;;4967414;28;20189;-64
2021/04/15 04:06:55;;;;;;;17.57;15.77;;;;;;;;;;4968895;28;20746;-64
2021/04/15 04:09:26;;;;;;;18.33;15.60;;;;;;;;;;4957822;28;20191;-64
2021/04/15 04:11:53;;;;;;;20.23;15.23;;;;;;;;;;4966989;28;20268;-63
2021/04/15 04:14:48;;;;;;;16.80;14.50;;;;;;;;;;4962590;28;20189;-64
2021/04/15 04:17:18;;;;;;;20.03;16.57;;;;;;;;;;4960718;28;20228;-64
2021/04/15 04:19:52;;;;;;;19.97;16.47;;;;;;;;;;4963310;28;20200;-64
2021/04/15 04:22:30;;;;;;;18.93;15.57;;;;;;;;;;4965826;28;20577;-63
2021/04/15 04:25:14;;;;;;;22.67;17.10;;;;;;;;;;4963179;28;20637;-65
2021/04/15 04:28:00;;;;;;;19.63;16.43;;;;;;;;;;4965570;28;20216;-64
2021/04/15 04:30:30;;;;;;;18.77;16.40;;;;;;;;;;4966712;28;20679;-65
2021/04/15 04:32:58;;;;;;;19.90;15.47;;;;;;;;;;4964635;28;20194;-65
2021/04/15 04:35:27;;;;;;;19.80;16.30;;;;;;;;;;4971735;28;20191;-66
2021/04/15 04:37:54;;;;;;;19.23;15.37;;;;;;;;;;4967140;28;20190;-66
2021/04/15 04:40:20;;;;;;;20.13;15.57;;;;;;;;;;4965035;28;20190;-64
2021/04/15 04:42:49;;;;;;;17.50;15.73;;;;;;;;;;4968323;28;20188;-66
2021/04/15 04:45:16;;;;;;;20.40;16.33;;;;;;;;;;4963688;28;20571;-64
2021/04/15 04:47:48;;;;;;;20.70;16.00;;;;;;;;;;4971970;28;20230;-65
2021/04/15 04:50:14;;;;;;;17.80;15.60;;;;;;;;;;4967482;28;20195;-65
2021/04/15 04:52:41;;;;;;;18.10;16.10;;;;;;;;;;4970097;28;20638;-64
2021/04/15 04:55:16;;;;;;;22.70;17.20;;;;;;;;;;4971911;28;20264;-64
2021/04/15 04:57:42;;;;;;;22.53;16.90;;;;;;;;;;4971911;28;20213;-64
2021/04/15 05:00:11;;;;;;;27.00;21.00;;;;;;;;;;4966098;28;20227;-63
2021/04/15 05:02:37;;;;;;;29.27;19.40;;;;;;;;;;4970613;28;20210;-62
2021/04/15 05:05:23;;;;;;;20.10;17.80;;;;;;;;;;4969225;28;20197;-64
2021/04/15 05:07:54;;;;;;;23.33;18.17;;;;;;;;;;4974304;28;20651;-65
2021/04/15 05:10:22;;;;;;;22.47;18.00;;;;;;;;;;4970366;28;20193;-65
2021/04/15 05:12:49;;;;;;;21.43;18.17;;;;;;;;;;4972871;28;20185;-65
2021/04/15 05:15:16;;;;;;;28.70;23.50;;;;;;;;;;4959871;28;20226;-66
2021/04/15 05:17:42;;;;;;;30.07;23.80;;;;;;;;;;4965348;28;20215;-64
2021/04/15 05:20:12;;;;;;;28.87;22.87;;;;;;;;;;4967987;28;20196;-64
2021/04/15 05:22:40;;;;;;;30.47;24.20;;;;;;;;;;4964787;28;20220;-65
2021/04/15 05:25:11;;;;;;;27.17;20.73;;;;;;;;;;4962051;28;20293;-65
2021/04/15 05:27:38;;;;;;;23.37;18.93;;;;;;;;;;4965849;28;20316;-65
2021/04/15 05:30:07;;;;;;;20.93;17.93;;;;;;;;;;4968153;28;20176;-63
2021/04/15 05:32:33;;;;;;;24.20;20.50;;;;;;;;;;4968890;28;20185;-64
2021/04/15 05:34:59;;;;;;;20.67;17.50;;;;;;;;;;4973120;28;20217;-66
2021/04/15 05:37:27;;;;;;;19.90;17.67;;;;;;;;;;4971412;28;20206;-63
2021/04/15 05:39:53;;;;;;;20.97;18.20;;;;;;;;;;4976167;28;20236;-65
2021/04/15 05:42:33;;;;;;;20.23;16.67;;;;;;;;;;4978459;28;20189;-64
2021/04/15 05:45:14;;;;;;;19.20;17.10;;;;;;;;;;4959836;28;20611;-64
2021/04/15 05:48:00;;;;;;;18.20;16.30;;;;;;;;;;4967466;28;20218;-63
2021/04/15 05:50:26;;;;;;;20.37;16.27;;;;;;;;;;4965350;28;20270;-64
2021/04/15 05:52:54;;;;;;;18.13;15.70;;;;;;;;;;4971983;28;20190;-63
2021/04/15 05:55:25;;;;;;;18.03;16.13;;;;;;;;;;4966449;28;20285;-65
2021/04/15 05:57:54;;;;;;;18.27;16.33;;;;;;;;;;4964921;28;20203;-64
2021/04/15 06:00:24;;;;;;;18.43;15.77;;;;;;;;;;4959185;28;20203;-63
2021/04/15 06:03:09;;;;;;;16.03;14.17;;;;;;;;;;4967107;28;20193;-64
2021/04/15 06:05:48;;;;;;;17.40;14.50;;;;;;;;;;4962718;28;20210;-63
2021/04/15 06:08:15;;;;;;;18.13;15.47;;;;;;;;;;4970294;28;20205;-65
2021/04/15 06:10:41;;;;;;;16.50;14.03;;;;;;;;;;4965789;28;20203;-65
2021/04/15 06:13:31;;;;;;;17.00;14.27;;;;;;;;;;4965967;28;20185;-63
2021/04/15 06:15:59;;;;;;;15.30;13.63;;;;;;;;;;4966156;28;20207;-63
2021/04/15 06:18:32;;;;;;;15.20;13.60;;;;;;;;;;4970054;28;20230;-64
2021/04/15 06:21:04;;;;;;;16.13;12.73;;;;;;;;;;4967992;28;20197;-64
2021/04/15 06:23:50;;;;;;;24.03;11.97;;;;;;;;;;4967268;28;20191;-64
2021/04/15 06:26:24;;;;;;;14.43;12.17;;;;;;;;;;4962196;28;20743;-63
2021/04/15 06:28:51;;;;;;;15.13;13.50;;;;;;;;;;4968137;28;20183;-63
2021/04/15 06:31:26;;;;;;;15.83;12.30;;;;;;;;;;4968021;28;20264;-65
2021/04/15 06:33:52;;;;;;;19.40;12.57;;;;;;;;;;4966189;28;20199;-65
2021/04/15 06:36:27;;;;;;;15.40;11.20;;;;;;;;;;4966911;28;20241;-65
2021/04/15 06:39:16;;;;;;;11.80;10.40;;;;;;;;;;4962086;28;20175;-63
2021/04/15 06:42:10;;;;;;;14.37;10.37;;;;;;;;;;4955802;28;20249;-65
2021/04/15 06:44:55;;;;;;;13.00;10.17;;;;;;;;;;4965087;28;20182;-64
2021/04/15 06:47:27;;;;;;;11.97;9.47;;;;;;;;;;4957634;28;20211;-64
2021/04/15 06:49:53;;;;;;;11.47;9.43;;;;;;;;;;4970728;28;20190;-66
2021/04/15 06:52:19;;;;;;;10.27;9.17;;;;;;;;;;4962771;28;20605;-66
2021/04/15 06:55:04;;;;;;;11.73;9.73;;;;;;;;;;4965579;28;20190;-67
2021/04/15 06:57:30;;;;;;;15.07;8.90;;;;;;;;;;4965762;28;20210;-65
2021/04/15 07:00:07;;;;;;;10.00;8.53;;;;;;;;;;4966122;28;20194;-65
2021/04/15 07:02:35;;;;;;;10.00;8.97;;;;;;;;;;4967201;28;20199;-65
2021/04/15 07:05:07;;;;;;;8.80;7.97;;;;;;;;;;4970744;28;20190;-65
2021/04/15 07:07:36;;;;;;;9.90;8.90;;;;;;;;;;4961718;28;20218;-64
2021/04/15 07:10:17;;;;;;;13.87;8.33;;;;;;;;;;4964219;28;20182;-64
2021/04/15 07:13:01;;;;;;;10.40;8.03;;;;;;;;;;4967976;28;20692;-65
2021/04/15 07:15:42;;;;;;;9.83;8.10;;;;;;;;;;4965438;28;20580;-66
2021/04/15 07:18:23;;;;;;;9.20;7.77;;;;;;;;;;4964630;28;20186;-64
2021/04/15 07:21:02;;;;;;;10.10;7.87;;;;;;;;;;4962579;28;20199;-64
2021/04/15 07:23:47;;;;;;;9.67;8.53;;;;;;;;;;4971169;28;20198;-64
2021/04/15 07:26:31;;;;;;;8.83;7.47;;;;;;;;;;4961221;28;20214;-63
2021/04/15 07:29:12;;;;;;;9.63;7.67;;;;;;;;;;4956055;28;20187;-63
2021/04/15 07:31:38;;;;;;;8.13;7.30;;;;;;;;;;4971165;28;20194;-65
2021/04/15 07:34:23;;;;;;;8.90;8.00;;;;;;;;;;4962883;28;20301;-64
2021/04/15 07:37:08;;;;;;;9.33;8.10;;;;;;;;;;4967867;28;20202;-65
2021/04/15 07:39:39;;;;;;;8.50;7.13;;;;;;;;;;4966195;28;20193;-64
2021/04/15 07:42:11;;;;;;;9.40;7.43;;;;;;;;;;4966958;28;20229;-64
2021/04/15 07:44:39;;;;;;;15.05;9.10;;;;;;;;;;4961475;28;20190;-64
2021/04/15 07:47:13;;;;;;;7.68;6.82;;;;;;;;;;4965662;28;20706;-65
2021/04/15 07:49:57;;;;;;;9.38;7.38;;;;;;;;;;4963133;28;20556;-65
2021/04/15 07:52:48;;;;;;;7.40;6.72;;;;;;;;;;4960242;28;20179;-64
2021/04/15 07:55:30;;;;;;;9.18;7.45;;;;;;;;;;4964168;28;20186;-65
2021/04/15 07:58:08;;;;;;;8.25;7.18;;;;;;;;;;4965065;28;20559;-65
2021/04/15 08:00:37;;;;;;;7.75;6.78;;;;;;;;;;4960726;28;20566;-65
2021/04/15 08:03:10;;;;;;;9.57;6.38;;;;;;;;;;4960846;28;20662;-65
2021/04/15 08:05:39;;;;;;;10.10;7.65;;;;;;;;;;4966968;28;20241;-65
2021/04/15 08:08:05;;;;;;;8.50;6.75;;;;;;;;;;4970047;28;20306;-65
2021/04/15 08:10:49;;;;;;;7.93;6.78;;;;;;;;;;4970134;28;20265;-65
2021/04/15 08:13:30;;;;;;;8.23;7.00;;;;;;;;;;4968537;28;20182;-65
2021/04/15 08:16:05;;;;;;;8.35;7.13;;;;;;;;;;4965086;28;20676;-67
2021/04/15 08:18:50;;;;;;;9.55;7.50;;;;;;;;;;4968117;28;20587;-64
2021/04/15 08:21:35;;;;;;;9.48;7.20;;;;;;;;;;4968120;28;20250;-65
2021/04/15 08:24:19;;;;;;;10.95;7.10;;;;;;;;;;4965664;28;20596;-64
2021/04/15 08:27:04;;;;;;;9.20;7.07;;;;;;;;;;4962228;28;20673;-66
2021/04/15 08:29:56;;;;;;;8.00;6.50;;;;;;;;;;4965506;28;20190;-64
2021/04/15 08:32:31;;;;;;;7.95;6.60;;;;;;;;;;4967673;28;20179;-64
2021/04/15 08:35:03;;;;;;;7.10;6.40;;;;;;;;;;4966745;28;20189;-65
2021/04/15 08:37:46;;;;;;;8.30;6.20;;;;;;;;;;4966750;28;20202;-64
2021/04/15 08:40:41;;;;;;;8.27;6.25;;;;;;;;;;4964757;28;20662;-65
2021/04/15 08:43:13;;;;;;;6.63;5.80;;;;;;;;;;4927395;29;20231;-65
2021/04/15 08:45:58;;;;;;;7.20;6.25;;;;;;;;;;4924870;29;20726;-65
2021/04/15 08:48:32;;;;;;;6.80;6.13;;;;;;;;;;4903726;29;20702;-65
2021/04/15 08:51:14;;;;;;;6.15;5.55;;;;;;;;;;4922245;29;20232;-66
2021/04/15 08:53:52;;;;;;;7.43;5.97;;;;;;;;;;4926164;29;20200;-67
2021/04/15 08:56:21;;;;;;;5.90;5.40;;;;;;;;;;4920924;29;20211;-66
2021/04/15 08:59:02;;;;;;;5.60;5.00;;;;;;;;;;4920241;29;20196;-66
2021/04/15 09:01:35;;;;;;;8.90;5.18;;;;;;;;;;4924414;29;20554;-67
2021/04/15 09:04:09;;;;;;;6.20;5.60;;;;;;;;;;4921803;29;20199;-66
2021/04/15 09:06:39;;;;;;;6.25;5.65;;;;;;;;;;4922447;29;20246;-67
2021/04/15 09:09:05;;;;;;;6.38;5.45;;;;;;;;;;4919685;29;20691;-65
2021/04/15 09:11:50;;;;;;;7.07;4.47;;;;;;;;;;4923504;29;20187;-66
2021/04/15 09:14:31;;;;;;;9.00;4.47;;;;;;;;;;4922899;29;20363;-67
2021/04/15 09:17:02;;;;;;;6.18;4.55;;;;;;;;;;4917908;29;20239;-64
2021/04/15 09:19:41;;;;;;;10.65;4.47;;;;;;;;;;4944532;28;20194;-64
2021/04/15 09:22:19;;;;;;;4.95;4.25;;;;;;;;;;4964290;28;20194;-64
2021/04/15 09:24:59;;;;;;;4.80;4.22;;;;;;;;;;4966356;28;20253;-66
2021/04/15 09:27:29;;;;;;;5.55;5.03;;;;;;;;;;4970767;28;20229;-66
2021/04/15 09:29:54;;;;;;;4.45;3.85;;;;;;;;;;4979146;28;20190;-65
2021/04/15 09:32:22;;;;;;;5.88;4.45;;;;;;;;;;4976913;28;20197;-66
2021/04/15 09:35:05;;;;;;;5.95;4.95;;;;;;;;;;4968179;28;20261;-66
2021/04/15 09:37:34;;;;;;;6.68;4.82;;;;;;;;;;4964139;28;20202;-66
2021/04/15 09:40:29;;;;;;;4.95;4.45;;;;;;;;;;4966901;28;20187;-65
2021/04/15 09:42:55;;;;;;;5.95;4.00;;;;;;;;;;4934959;28;20579;-66
2021/04/15 09:45:21;;;;;;;5.82;4.55;;;;;;;;;;4966267;28;20261;-66
2021/04/15 09:48:05;;;;;;;4.93;4.38;;;;;;;;;;4968438;28;20215;-66
2021/04/15 09:50:35;;;;;;;5.68;3.85;;;;;;;;;;4975234;28;20268;-67
2021/04/15 09:53:18;;;;;;;4.82;4.05;;;;;;;;;;4967125;28;20202;-66
2021/04/15 09:56:02;;;;;;;4.75;3.58;;;;;;;;;;4967764;28;20240;-67
2021/04/15 09:58:28;;;;;;;4.47;3.42;;;;;;;;;;4968976;28;20214;-66
2021/04/15 10:00:57;;;;;;;5.30;3.45;;;;;;;;;;4965667;28;20190;-67
2021/04/15 10:03:42;;;;;;;3.92;3.53;;;;;;;;;;4967074;28;20213;-67
2021/04/15 10:06:11;;;;;;;4.85;3.13;;;;;;;;;;4965594;28;20202;-67
2021/04/15 10:08:52;;;;;;;3.67;3.28;;;;;;;;;;4969541;28;20220;-66
2021/04/15 10:11:37;;;;;;;3.20;2.67;;;;;;;;;;4967045;28;20261;-66
2021/04/15 10:14:21;;;;;;;4.47;3.53;;;;;;;;;;4966262;28;20602;-66
2021/04/15 10:17:13;;;;;;;4.25;3.13;;;;;;;;;;4963575;28;20269;-65
2021/04/15 10:19:58;;;;;;;4.03;3.72;;;;;;;;;;4969576;28;20186;-66
2021/04/15 10:22:35;;;;;;;6.45;4.00;;;;;;;;;;4967041;28;20273;-66
2021/04/15 10:25:19;;;;;;;4.80;3.53;;;;;;;;;;4968034;28;20665;-65
2021/04/15 10:28:04;;;;;;;3.60;2.42;;;;;;;;;;4957735;28;20252;-66
2021/04/15 10:30:48;;;;;;;3.15;2.85;;;;;;;;;;4964169;28;20174;-67
2021/04/15 10:33:53;;;;;;;5.38;4.30;;;;;;;;;;4965228;28;20657;-66
2021/04/15 10:36:19;;;;;;;5.50;3.80;;;;;;;;;;4949110;28;20203;-65
2021/04/15 10:38:56;;;;;;;4.97;3.42;;;;;;;;;;4943498;28;20216;-65
2021/04/15 10:41:22;;;;;;;5.57;4.18;;;;;;;;;;4947658;28;20551;-65
2021/04/15 10:44:00;;;;;;;6.20;3.20;;;;;;;;;;4955255;28;20185;-65
2021/04/15 10:46:26;;;;;;;4.07;2.50;;;;;;;;;;4950625;28;20217;-65
2021/04/15 10:49:11;;;;;;;3.05;2.63;;;;;;;;;;4959534;28;20222;-65
2021/04/15 10:51:44;;;;;;;4.72;2.50;;;;;;;;;;4947912;28;20236;-64
2021/04/15 10:54:30;;;;;;;2.72;2.53;;;;;;;;;;4954453;28;20237;-66
2021/04/15 10:56:57;;;;;;;2.47;2.22;;;;;;;;;;4943678;28;20370;-66
2021/04/15 10:59:28;;;;;;;2.38;2.00;;;;;;;;;;4947027;28;20573;-66
2021/04/15 11:02:08;;;;;;;4.00;2.50;;;;;;;;;;4952109;28;20272;-66
2021/04/15 11:04:33;;;;;;;3.35;2.22;;;;;;;;;;4949213;28;20203;-66
2021/04/15 11:07:07;;;;;;;3.53;2.58;;;;;;;;;;4955652;28;20285;-66
2021/04/15 11:09:44;;;;;;;2.90;2.38;;;;;;;;;;4963845;28;20217;-66
2021/04/15 11:12:16;;;;;;;2.30;2.08;;;;;;;;;;4961096;28;21113;-66
2021/04/15 11:14:45;;;;;;;4.22;2.67;;;;;;;;;;4962904;28;20185;-66
2021/04/15 11:17:17;;;;;;;4.28;3.63;;;;;;;;;;4967693;28;20211;-66
2021/04/15 11:19:43;;;;;;;6.03;3.10;;;;;;;;;;4964273;28;20182;-66
2021/04/15 11:22:21;;;;;;;3.60;3.15;;;;;;;;;;4966185;28;20216;-66
2021/04/15 11:24:47;;;;;;;4.68;3.10;;;;;;;;;;4962388;28;20193;-66
2021/04/15 11:27:14;;;;;;;4.45;3.67;;;;;;;;;;4974602;28;20885;-68
2021/04/15 11:29:43;;;;;;;7.35;3.97;;;;;;;;;;4975517;28;20185;-67
2021/04/15 11:32:29;;;;;;;8.18;3.28;;;;;;;;;;4961084;28;20181;-65
2021/04/15 11:35:14;;;;;;;3.65;3.30;;;;;;;;;;4963928;28;20196;-65
2021/04/15 11:37:41;;;;;;;4.25;3.42;;;;;;;;;;4964579;28;20673;-64
2021/04/15 11:40:25;;;;;;;5.05;3.25;;;;;;;;;;4965937;28;20393;-65
2021/04/15 11:42:52;;;;;;;4.47;3.72;;;;;;;;;;4965508;28;20179;-65
2021/04/15 11:45:27;;;;;;;4.45;4.05;;;;;;;;;;4972127;28;20578;-65
2021/04/15 11:48:08;;;;;;;5.47;3.85;;;;;;;;;;4977473;28;20294;-66
2021/04/15 11:50:34;;;;;;;5.17;4.10;;;;;;;;;;4958711;28;20228;-65
2021/04/15 11:53:00;;;;;;;6.23;3.90;;;;;;;;;;4963902;28;20185;-63
2021/04/15 11:55:28;;;;;;;6.20;4.30;;;;;;;;;;4961370;28;20205;-66
2021/04/15 11:57:56;;;;;;;5.70;4.22;;;;;;;;;;4971885;28;20241;-64
2021/04/15 12:00:26;;;;;;;7.25;4.63;;;;;;;;;;4959846;28;20198;-67
2021/04/15 12:02:55;;;;;;;4.95;3.28;;;;;;;;;;4959791;28;20186;-64
2021/04/15 12:05:30;;;;;;;6.55;3.42;;;;;;;;;;4965912;28;20186;-64
2021/04/15 12:08:12;;;;;;;3.80;3.40;;;;;;;;;;4963955;28;20653;-64
2021/04/15 12:11:01;;;;;;;3.90;3.60;;;;;;;;;;4964958;28;20182;-64
2021/04/15 12:13:35;;;;;;;3.22;2.88;;;;;;;;;;4964809;28;20270;-64
2021/04/15 12:16:16;;;;;;;3.45;3.00;;;;;;;;;;4966104;28;20234;-64
2021/04/15 12:18:45;;;;;;;4.75;3.20;;;;;;;;;;4967751;28;20186;-65
2021/04/15 12:21:27;;;;;;;3.55;3.08;;;;;;;;;;4963308;28;20194;-65
2021/04/15 12:23:56;;;;;;;3.85;2.83;;;;;;;;;;4968183;28;20649;-65
2021/04/15 12:26:35;;;;;;;5.13;4.35;;;;;;;;;;4961551;28;20207;-65
2021/04/15 12:29:01;;;;;;;4.63;4.18;;;;;;;;;;4962892;28;20711;-64
2021/04/15 12:31:33;;;;;;;3.47;2.80;;;;;;;;;;4965682;28;20191;-64
2021/04/15 12:34:08;;;;;;;2.80;2.47;;;;;;;;;;4959002;28;20734;-65
2021/04/15 12:36:37;;;;;;;3.97;2.35;;;;;;;;;;4960297;28;20233;-65
2021/04/15 12:39:13;;;;;;;2.90;2.70;;;;;;;;;;4967026;28;20187;-65
2021/04/15 12:41:39;;;;;;;6.43;4.32;;;;;;;;;;4966272;28;20264;-66
2021/04/15 12:44:09;;;;;;;2.58;2.38;;;;;;;;;;4966813;28;20236;-64
2021/04/15 12:46:36;;;;;;;2.60;2.40;;;;;;;;;;4965291;28;20207;-67
2021/04/15 12:49:04;;;;;;;3.95;3.20;;;;;;;;;;4965028;28;20226;-64
2021/04/15 12:51:53;;;;;;;4.28;3.20;;;;;;;;;;4962301;28;20179;-66
2021/04/15 12:54:22;;;;;;;2.78;2.58;;;;;;;;;;4961256;28;20249;-65
2021/04/15 12:56:52;;;;;;;6.22;2.90;;;;;;;;;;4961002;28;20600;-65
2021/04/15 12:59:20;;;;;;;2.95;2.65;;;;;;;;;;4967596;28;20190;-66
2021/04/15 13:01:47;;;;;;;5.22;2.75;;;;;;;;;;4959704;28;20187;-66
2021/04/15 13:04:41;;;;;;;5.18;2.45;;;;;;;;;;4963628;28;20265;-65
2021/04/15 13:07:08;;;;;;;3.28;2.63;;;;;;;;;;4967602;28;20714;-65
2021/04/15 13:09:41;;;;;;;3.70;2.85;;;;;;;;;;4967330;28;20187;-64
2021/04/15 13:12:19;;;;;;;3.42;3.13;;;;;;;;;;4969475;28;20197;-65
2021/04/15 13:14:47;;;;;;;4.13;2.70;;;;;;;;;;4963840;28;20182;-65
2021/04/15 13:17:33;;;;;;;4.07;3.67;;;;;;;;;;4962202;28;20719;-66
2021/04/15 13:20:00;;;;;;;4.80;3.30;;;;;;;;;;4966601;28;20819;-66
2021/04/15 13:22:28;;;;;;;4.55;3.40;;;;;;;;;;4965762;28;20202;-66
2021/04/15 13:25:00;;;;;;;3.20;2.80;;;;;;;;;;4959684;28;20539;-65
2021/04/15 13:27:36;;;;;;;7.72;3.70;;;;;;;;;;4964958;28;20222;-66
2021/04/15 13:30:23;;;;;;;5.28;3.83;;;;;;;;;;4970824;28;20216;-65
2021/04/15 13:33:12;;;;;;;4.28;3.40;;;;;;;;;;4969466;28;20676;-65
2021/04/15 13:35:46;;;;;;;4.32;3.60;;;;;;;;;;4963010;28;20705;-65
2021/04/15 13:38:39;;;;;;;6.28;3.63;;;;;;;;;;4962571;28;20320;-65
2021/04/15 13:41:08;;;;;;;5.65;3.00;;;;;;;;;;4965413;28;20201;-65
2021/04/15 13:43:37;;;;;;;4.93;3.53;;;;;;;;;;4968694;28;20665;-65
2021/04/15 13:46:25;;;;;;;5.43;3.63;;;;;;;;;;4966129;28;20634;-65
2021/04/15 13:48:57;;;;;;;6.20;4.38;;;;;;;;;;4968597;28;20214;-65
2021/04/15 13:51:23;;;;;;;6.13;4.50;;;;;;;;;;4967071;28;20274;-65
2021/04/15 13:53:49;;;;;;;7.70;4.00;;;;;;;;;;4965485;28;20286;-65
2021/04/15 13:56:29;;;;;;;4.05;2.95;;;;;;;;;;4963755;28;20206;-64
2021/04/15 13:58:55;;;;;;;4.68;2.85;;;;;;;;;;4964480;28;20183;-66
2021/04/15 14:01:31;;;;;;;3.22;2.72;;;;;;;;;;4971914;28;20194;-66
2021/04/15 14:03:57;;;;;;;3.67;2.25;;;;;;;;;;4967390;28;20394;-68
2021/04/15 14:06:25;;;;;;;2.13;1.95;;;;;;;;;;4968258;28;20716;-69
2021/04/15 14:09:01;;;;;;;2.78;2.13;;;;;;;;;;4966074;28;20253;-66
2021/04/15 14:11:35;;;;;;;3.92;2.58;;;;;;;;;;4959501;28;20601;-68
2021/04/15 14:14:02;;;;;;;4.65;3.95;;;;;;;;;;4965984;28;20185;-68
2021/04/15 14:16:30;;;;;;;6.28;4.00;;;;;;;;;;4957148;28;20198;-68
2021/04/15 14:19:05;;;;;;;3.80;2.97;;;;;;;;;;4964500;28;20234;-67
2021/04/15 14:21:32;;;;;;;5.30;4.47;;;;;;;;;;4958317;28;20241;-69
2021/04/15 14:24:00;;;;;;;3.80;3.33;;;;;;;;;;4966003;28;20190;-67
2021/04/15 14:26:28;;;;;;;6.00;4.80;;;;;;;;;;4965766;28;20702;-65
2021/04/15 14:29:06;;;;;;;5.27;4.43;;;;;;;;;;4961015;28;20217;-65
2021/04/15 14:31:34;;;;;;;4.73;4.27;;;;;;;;;;4958661;28;20185;-66
2021/04/15 14:34:00;;;;;;;5.83;5.20;;;;;;;;;;4964545;28;20191;-65
2021/04/15 14:36:29;;;;;;;4.77;3.90;;;;;;;;;;4964652;28;20210;-65
2021/04/15 14:38:56;;;;;;;4.47;4.07;;;;;;;;;;4969360;28;20279;-66
2021/04/15 14:41:29;;;;;;;4.40;4.00;;;;;;;;;;4973773;28;20194;-65
2021/04/15 14:44:06;;;;;;;4.20;3.80;;;;;;;;;;4971256;28;20224;-65
2021/04/15 14:46:32;;;;;;;5.93;5.13;;;;;;;;;;4962550;28;20245;-65
2021/04/15 14:49:16;;;;;;;3.37;3.07;;;;;;;;;;4967848;28;20217;-65
2021/04/15 14:51:43;;;;;;;4.53;3.83;;;;;;;;;;4967768;28;20201;-65
2021/04/15 14:54:18;;;;;;;4.23;3.93;;;;;;;;;;4969379;28;20586;-64
2021/04/15 14:56:44;;;;;;;5.07;3.70;;;;;;;;;;4964068;28;20268;-65
2021/04/15 14:59:20;;;;;;;4.03;3.73;;;;;;;;;;4969139;28;20178;-66
2021/04/15 15:01:46;;;;;;;4.57;3.20;;;;;;;;;;4967133;28;20223;-64
2021/04/15 15:04:13;;;;;;;3.40;3.15;;;;;;;;;;4961853;28;20269;-65
2021/04/15 15:06:41;;;;;;;6.28;4.38;;;;;;;;;;4969952;28;20686;-63
2021/04/15 15:09:08;;;;;;;4.93;3.90;;;;;;;;;;4968358;28;20213;-67
2021/04/15 15:11:35;;;;;;;6.82;4.30;;;;;;;;;;4963493;28;20254;-64
2021/04/15 15:14:04;;;;;;;6.13;4.65;;;;;;;;;;4963697;28;20202;-65
2021/04/15 15:16:34;;;;;;;4.10;3.28;;;;;;;;;;4969721;28;20198;-66